sensor_id;sensor_type;location;lat;lon;timestamp;temperature;humidity
54168;DHT22;68429;50.958;3.592;2023-12-20T00:01:05;6.40;99.90
54168;DHT22;68429;50.958;3.592;2023-12-20T00:03:30;6.40;99.90
54168;DHT22;68429;50.958;3.592;2023-12-20T00:05:56;6.50;99.90
54168;DHT22;68429;50.958;3.592;2023-12-20T00:08:21;6.50;99.90
54168;DHT22;68429;50.958;3.592;2023-12-20T00:10:47;6.50;99.90
54168;DHT22;68429;50.958;3.592;2023-12-20T00:13:13;6.40;99.90
54168;DHT22;68429;50.958;3.592;2023-12-20T00:15:38;6.30;99.90
54168;DHT22;68429;50.958;3.592;2023-12-20T00:18:04;6.30;99.90
54168;DHT22;68429;50.958;3.592;2023-12-20T00:20:30;6.40;99.90
54168;DHT22;68429;50.958;3.592;2023-12-20T00:22:57;6.30;99.90
54168;DHT22;68429;50.958;3.592;2023-12-20T00:25:26;6.30;99.90
54168;DHT22;68429;50.958;3.592;2023-12-20T00:27:52;6.40;99.90
54168;DHT22;68429;50.958;3.592;2023-12-20T00:30:18;6.30;99.90
54168;DHT22;68429;50.958;3.592;2023-12-20T00:32:44;6.30;99.90
54168;DHT22;68429;50.958;3.592;2023-12-20T00:35:15;6.30;99.90
54168;DHT22;68429;50.958;3.592;2023-12-20T00:37:44;6.30;99.90
54168;DHT22;68429;50.958;3.592;2023-12-20T00:40:10;6.20;99.90
54168;DHT22;68429;50.958;3.592;2023-12-20T00:42:36;6.30;99.90
54168;DHT22;68429;50.958;3.592;2023-12-20T00:45:02;6.20;99.90
54168;DHT22;68429;50.958;3.592;2023-12-20T00:47:30;6.10;99.90
54168;DHT22;68429;50.958;3.592;2023-12-20T00:49:56;6.10;99.90
54168;DHT22;68429;50.958;3.592;2023-12-20T00:52:21;6.00;99.90
54168;DHT22;68429;50.958;3.592;2023-12-20T00:54:48;6.00;99.90
54168;DHT22;68429;50.958;3.592;2023-12-20T00:57:14;6.00;99.90
54168;DHT22;68429;50.958;3.592;2023-12-20T00:59:39;6.00;99.90
54168;DHT22;68429;50.958;3.592;2023-12-20T01:02:05;6.00;99.90
54168;DHT22;68429;50.958;3.592;2023-12-20T01:04:31;6.10;99.90
54168;DHT22;68429;50.958;3.592;2023-12-20T01:06:56;6.20;99.90
54168;DHT22;68429;50.958;3.592;2023-12-20T01:09:22;6.30;99.90
54168;DHT22;68429;50.958;3.592;2023-12-20T01:11:52;6.30;99.90
54168;DHT22;68429;50.958;3.592;2023-12-20T01:14:18;6.40;99.90
54168;DHT22;68429;50.958;3.592;2023-12-20T01:16:44;6.40;99.90
54168;DHT22;68429;50.958;3.592;2023-12-20T01:19:09;6.50;99.90
54168;DHT22;68429;50.958;3.592;2023-12-20T01:21:35;6.40;99.90
54168;DHT22;68429;50.958;3.592;2023-12-20T01:24:01;6.30;99.90
54168;DHT22;68429;50.958;3.592;2023-12-20T01:26:26;6.40;99.90
54168;DHT22;68429;50.958;3.592;2023-12-20T01:28:52;6.40;99.90
54168;DHT22;68429;50.958;3.592;2023-12-20T01:31:17;6.40;99.90
54168;DHT22;68429;50.958;3.592;2023-12-20T01:33:43;6.50;99.90
54168;DHT22;68429;50.958;3.592;2023-12-20T01:36:09;6.50;99.90
54168;DHT22;68429;50.958;3.592;2023-12-20T01:38:34;6.60;99.90
54168;DHT22;68429;50.958;3.592;2023-12-20T01:41:00;6.60;99.90
54168;DHT22;68429;50.958;3.592;2023-12-20T01:43:26;6.50;99.90
54168;DHT22;68429;50.958;3.592;2023-12-20T01:45:52;6.50;99.90
54168;DHT22;68429;50.958;3.592;2023-12-20T01:48:18;6.50;99.90
54168;DHT22;68429;50.958;3.592;2023-12-20T01:50:45;6.50;99.90
54168;DHT22;68429;50.958;3.592;2023-12-20T01:53:12;6.40;99.90
54168;DHT22;68429;50.958;3.592;2023-12-20T01:55:41;6.50;99.90
54168;DHT22;68429;50.958;3.592;2023-12-20T01:58:08;6.50;99.90
54168;DHT22;68429;50.958;3.592;2023-12-20T02:00:36;6.60;99.90
54168;DHT22;68429;50.958;3.592;2023-12-20T02:03:03;6.60;99.90
54168;DHT22;68429;50.958;3.592;2023-12-20T02:05:33;6.50;99.90
54168;DHT22;68429;50.958;3.592;2023-12-20T02:07:59;6.60;99.90
54168;DHT22;68429;50.958;3.592;2023-12-20T02:10:25;6.50;99.90
54168;DHT22;68429;50.958;3.592;2023-12-20T02:12:50;6.60;99.90
54168;DHT22;68429;50.958;3.592;2023-12-20T02:15:16;6.80;99.90
54168;DHT22;68429;50.958;3.592;2023-12-20T02:17:42;6.60;99.90
54168;DHT22;68429;50.958;3.592;2023-12-20T02:20:08;6.80;99.90
54168;DHT22;68429;50.958;3.592;2023-12-20T02:22:34;6.70;99.90
54168;DHT22;68429;50.958;3.592;2023-12-20T02:25:00;6.70;99.90
54168;DHT22;68429;50.958;3.592;2023-12-20T02:27:25;6.80;99.90
54168;DHT22;68429;50.958;3.592;2023-12-20T02:29:51;6.90;99.90
54168;DHT22;68429;50.958;3.592;2023-12-20T02:32:17;6.80;99.90
54168;DHT22;68429;50.958;3.592;2023-12-20T02:34:44;6.80;99.90
54168;DHT22;68429;50.958;3.592;2023-12-20T02:37:09;6.90;99.90
54168;DHT22;68429;50.958;3.592;2023-12-20T02:39:35;6.90;99.90
54168;DHT22;68429;50.958;3.592;2023-12-20T02:42:01;6.90;99.90
54168;DHT22;68429;50.958;3.592;2023-12-20T02:44:26;6.90;99.90
54168;DHT22;68429;50.958;3.592;2023-12-20T02:46:52;6.80;99.90
54168;DHT22;68429;50.958;3.592;2023-12-20T02:49:17;6.90;99.90
54168;DHT22;68429;50.958;3.592;2023-12-20T02:51:43;6.80;99.90
54168;DHT22;68429;50.958;3.592;2023-12-20T02:54:09;6.80;99.90
54168;DHT22;68429;50.958;3.592;2023-12-20T02:56:35;6.80;99.90
54168;DHT22;68429;50.958;3.592;2023-12-20T02:59:01;6.70;99.90
54168;DHT22;68429;50.958;3.592;2023-12-20T03:01:28;6.70;99.90
54168;DHT22;68429;50.958;3.592;2023-12-20T03:03:53;6.70;99.90
54168;DHT22;68429;50.958;3.592;2023-12-20T03:06:19;6.60;99.90
54168;DHT22;68429;50.958;3.592;2023-12-20T03:08:45;6.70;99.90
54168;DHT22;68429;50.958;3.592;2023-12-20T03:11:11;6.50;99.90
54168;DHT22;68429;50.958;3.592;2023-12-20T03:13:37;6.50;99.90
54168;DHT22;68429;50.958;3.592;2023-12-20T03:16:12;6.50;99.90
54168;DHT22;68429;50.958;3.592;2023-12-20T03:18:38;6.40;99.90
54168;DHT22;68429;50.958;3.592;2023-12-20T03:21:04;6.40;99.90
54168;DHT22;68429;50.958;3.592;2023-12-20T03:23:30;6.40;99.90
54168;DHT22;68429;50.958;3.592;2023-12-20T03:25:58;6.50;99.90
54168;DHT22;68429;50.958;3.592;2023-12-20T03:28:24;6.30;99.90
54168;DHT22;68429;50.958;3.592;2023-12-20T03:30:49;6.20;99.90
54168;DHT22;68429;50.958;3.592;2023-12-20T03:33:15;6.20;99.90
54168;DHT22;68429;50.958;3.592;2023-12-20T03:35:41;6.10;99.90
54168;DHT22;68429;50.958;3.592;2023-12-20T03:38:06;6.00;99.90
54168;DHT22;68429;50.958;3.592;2023-12-20T03:40:32;6.00;99.90
54168;DHT22;68429;50.958;3.592;2023-12-20T03:42:58;5.90;99.90
54168;DHT22;68429;50.958;3.592;2023-12-20T03:45:24;5.80;99.90
54168;DHT22;68429;50.958;3.592;2023-12-20T03:47:50;5.90;99.90
54168;DHT22;68429;50.958;3.592;2023-12-20T03:50:23;6.00;99.90
54168;DHT22;68429;50.958;3.592;2023-12-20T03:52:48;6.00;99.90
54168;DHT22;68429;50.958;3.592;2023-12-20T03:55:14;6.00;99.90
54168;DHT22;68429;50.958;3.592;2023-12-20T03:57:40;5.90;99.90
54168;DHT22;68429;50.958;3.592;2023-12-20T04:00:07;6.00;99.90
54168;DHT22;68429;50.958;3.592;2023-12-20T04:02:39;6.00;99.90
54168;DHT22;68429;50.958;3.592;2023-12-20T04:05:06;6.00;99.90
54168;DHT22;68429;50.958;3.592;2023-12-20T04:07:32;6.00;99.90
54168;DHT22;68429;50.958;3.592;2023-12-20T04:09:57;6.10;99.90
54168;DHT22;68429;50.958;3.592;2023-12-20T04:12:23;6.00;99.90
54168;DHT22;68429;50.958;3.592;2023-12-20T04:14:49;6.00;99.90
54168;DHT22;68429;50.958;3.592;2023-12-20T04:17:15;6.00;99.90
54168;DHT22;68429;50.958;3.592;2023-12-20T04:19:41;5.70;99.90
54168;DHT22;68429;50.958;3.592;2023-12-20T04:22:07;5.70;99.90
54168;DHT22;68429;50.958;3.592;2023-12-20T04:24:33;5.60;99.90
54168;DHT22;68429;50.958;3.592;2023-12-20T04:26:58;5.70;99.90
54168;DHT22;68429;50.958;3.592;2023-12-20T04:29:24;5.70;99.90
54168;DHT22;68429;50.958;3.592;2023-12-20T04:31:49;5.70;99.90
54168;DHT22;68429;50.958;3.592;2023-12-20T04:34:17;5.70;99.90
54168;DHT22;68429;50.958;3.592;2023-12-20T04:36:43;5.80;99.90
54168;DHT22;68429;50.958;3.592;2023-12-20T04:39:09;5.70;99.90
54168;DHT22;68429;50.958;3.592;2023-12-20T04:41:34;5.80;99.90
54168;DHT22;68429;50.958;3.592;2023-12-20T04:44:00;5.70;99.90
54168;DHT22;68429;50.958;3.592;2023-12-20T04:46:26;5.60;99.90
54168;DHT22;68429;50.958;3.592;2023-12-20T04:48:52;5.60;99.90
54168;DHT22;68429;50.958;3.592;2023-12-20T04:51:17;5.70;99.90
54168;DHT22;68429;50.958;3.592;2023-12-20T04:53:43;5.50;99.90
54168;DHT22;68429;50.958;3.592;2023-12-20T04:56:09;5.60;99.90
54168;DHT22;68429;50.958;3.592;2023-12-20T04:58:34;5.50;99.90
54168;DHT22;68429;50.958;3.592;2023-12-20T05:01:00;5.50;99.90
54168;DHT22;68429;50.958;3.592;2023-12-20T05:03:26;5.50;99.90
54168;DHT22;68429;50.958;3.592;2023-12-20T05:05:51;5.60;99.90
54168;DHT22;68429;50.958;3.592;2023-12-20T05:08:17;5.60;99.90
54168;DHT22;68429;50.958;3.592;2023-12-20T05:10:43;5.50;99.90
54168;DHT22;68429;50.958;3.592;2023-12-20T05:13:09;5.40;99.90
54168;DHT22;68429;50.958;3.592;2023-12-20T05:15:34;5.30;99.90
54168;DHT22;68429;50.958;3.592;2023-12-20T05:18:00;5.40;99.90
54168;DHT22;68429;50.958;3.592;2023-12-20T05:20:25;5.30;99.90
54168;DHT22;68429;50.958;3.592;2023-12-20T05:22:51;5.40;99.90
54168;DHT22;68429;50.958;3.592;2023-12-20T05:25:17;5.50;99.90
54168;DHT22;68429;50.958;3.592;2023-12-20T05:27:42;5.50;99.90
54168;DHT22;68429;50.958;3.592;2023-12-20T05:30:09;5.70;99.90
54168;DHT22;68429;50.958;3.592;2023-12-20T05:32:36;5.70;99.90
54168;DHT22;68429;50.958;3.592;2023-12-20T05:35:01;5.70;99.90
54168;DHT22;68429;50.958;3.592;2023-12-20T05:37:28;5.90;99.90
54168;DHT22;68429;50.958;3.592;2023-12-20T05:39:54;5.90;99.90
54168;DHT22;68429;50.958;3.592;2023-12-20T05:42:20;5.80;99.90
54168;DHT22;68429;50.958;3.592;2023-12-20T05:44:45;5.80;99.90
54168;DHT22;68429;50.958;3.592;2023-12-20T05:47:11;5.90;99.90
54168;DHT22;68429;50.958;3.592;2023-12-20T05:49:36;6.00;99.90
54168;DHT22;68429;50.958;3.592;2023-12-20T05:52:02;5.90;99.90
54168;DHT22;68429;50.958;3.592;2023-12-20T05:54:28;5.90;99.90
54168;DHT22;68429;50.958;3.592;2023-12-20T05:56:53;6.10;99.90
54168;DHT22;68429;50.958;3.592;2023-12-20T05:59:20;5.90;99.90
54168;DHT22;68429;50.958;3.592;2023-12-20T06:01:46;5.90;99.90
54168;DHT22;68429;50.958;3.592;2023-12-20T06:04:11;5.80;99.90
54168;DHT22;68429;50.958;3.592;2023-12-20T06:06:41;5.70;99.90
54168;DHT22;68429;50.958;3.592;2023-12-20T06:09:07;5.60;99.90
54168;DHT22;68429;50.958;3.592;2023-12-20T06:11:33;5.60;99.90
54168;DHT22;68429;50.958;3.592;2023-12-20T06:13:59;5.60;99.90
54168;DHT22;68429;50.958;3.592;2023-12-20T06:16:24;5.60;99.90
54168;DHT22;68429;50.958;3.592;2023-12-20T06:18:50;5.60;99.90
54168;DHT22;68429;50.958;3.592;2023-12-20T06:21:16;5.60;99.90
54168;DHT22;68429;50.958;3.592;2023-12-20T06:23:41;5.50;99.90
54168;DHT22;68429;50.958;3.592;2023-12-20T06:26:07;5.50;99.90
54168;DHT22;68429;50.958;3.592;2023-12-20T06:28:33;5.50;99.90
54168;DHT22;68429;50.958;3.592;2023-12-20T06:30:58;5.50;99.90
54168;DHT22;68429;50.958;3.592;2023-12-20T06:33:26;5.40;99.90
54168;DHT22;68429;50.958;3.592;2023-12-20T06:35:51;5.40;99.90
54168;DHT22;68429;50.958;3.592;2023-12-20T06:38:18;5.50;99.90
54168;DHT22;68429;50.958;3.592;2023-12-20T06:40:44;5.50;99.90
54168;DHT22;68429;50.958;3.592;2023-12-20T06:43:10;5.50;99.90
54168;DHT22;68429;50.958;3.592;2023-12-20T06:45:35;5.40;99.90
54168;DHT22;68429;50.958;3.592;2023-12-20T06:48:01;5.40;99.90
54168;DHT22;68429;50.958;3.592;2023-12-20T06:50:26;5.40;99.90
54168;DHT22;68429;50.958;3.592;2023-12-20T06:52:53;5.40;99.90
54168;DHT22;68429;50.958;3.592;2023-12-20T06:55:18;5.60;99.90
54168;DHT22;68429;50.958;3.592;2023-12-20T06:57:44;5.40;99.90
54168;DHT22;68429;50.958;3.592;2023-12-20T07:00:11;5.50;99.90
54168;DHT22;68429;50.958;3.592;2023-12-20T07:02:37;5.40;99.90
54168;DHT22;68429;50.958;3.592;2023-12-20T07:05:03;5.40;99.90
54168;DHT22;68429;50.958;3.592;2023-12-20T07:07:29;5.40;99.90
54168;DHT22;68429;50.958;3.592;2023-12-20T07:09:55;5.30;99.90
54168;DHT22;68429;50.958;3.592;2023-12-20T07:12:21;5.30;99.90
54168;DHT22;68429;50.958;3.592;2023-12-20T07:14:47;5.30;99.90
54168;DHT22;68429;50.958;3.592;2023-12-20T07:17:12;5.40;99.90
54168;DHT22;68429;50.958;3.592;2023-12-20T07:19:40;5.30;99.90
54168;DHT22;68429;50.958;3.592;2023-12-20T07:22:06;5.30;99.90
54168;DHT22;68429;50.958;3.592;2023-12-20T07:24:32;5.20;99.90
54168;DHT22;68429;50.958;3.592;2023-12-20T07:27:02;5.30;99.90
54168;DHT22;68429;50.958;3.592;2023-12-20T07:29:27;5.20;99.90
54168;DHT22;68429;50.958;3.592;2023-12-20T07:31:53;5.20;99.90
54168;DHT22;68429;50.958;3.592;2023-12-20T07:34:20;5.20;99.90
54168;DHT22;68429;50.958;3.592;2023-12-20T07:36:46;5.20;99.90
54168;DHT22;68429;50.958;3.592;2023-12-20T07:39:11;5.30;99.90
54168;DHT22;68429;50.958;3.592;2023-12-20T07:41:37;5.10;99.90
54168;DHT22;68429;50.958;3.592;2023-12-20T07:44:04;5.20;99.90
54168;DHT22;68429;50.958;3.592;2023-12-20T07:46:30;5.20;99.90
54168;DHT22;68429;50.958;3.592;2023-12-20T07:48:56;5.20;99.90
54168;DHT22;68429;50.958;3.592;2023-12-20T07:51:21;5.20;99.90
54168;DHT22;68429;50.958;3.592;2023-12-20T07:53:47;5.20;99.90
54168;DHT22;68429;50.958;3.592;2023-12-20T07:56:17;5.20;99.90
54168;DHT22;68429;50.958;3.592;2023-12-20T07:58:43;5.20;99.90
54168;DHT22;68429;50.958;3.592;2023-12-20T08:01:10;5.20;99.90
54168;DHT22;68429;50.958;3.592;2023-12-20T08:03:36;5.20;99.90
54168;DHT22;68429;50.958;3.592;2023-12-20T08:06:02;5.20;99.90
54168;DHT22;68429;50.958;3.592;2023-12-20T08:08:28;5.20;99.90
54168;DHT22;68429;50.958;3.592;2023-12-20T08:10:53;5.30;99.90
54168;DHT22;68429;50.958;3.592;2023-12-20T08:13:19;5.10;99.90
54168;DHT22;68429;50.958;3.592;2023-12-20T08:15:45;5.10;99.90
54168;DHT22;68429;50.958;3.592;2023-12-20T08:18:10;5.00;99.90
54168;DHT22;68429;50.958;3.592;2023-12-20T08:20:36;5.10;99.90
54168;DHT22;68429;50.958;3.592;2023-12-20T08:23:02;5.10;99.90
54168;DHT22;68429;50.958;3.592;2023-12-20T08:25:28;5.10;99.90
54168;DHT22;68429;50.958;3.592;2023-12-20T08:27:53;5.30;99.90
54168;DHT22;68429;50.958;3.592;2023-12-20T08:30:19;5.60;99.90
54168;DHT22;68429;50.958;3.592;2023-12-20T08:32:48;5.90;99.90
54168;DHT22;68429;50.958;3.592;2023-12-20T08:35:14;6.20;99.90
54168;DHT22;68429;50.958;3.592;2023-12-20T08:37:39;6.60;99.90
54168;DHT22;68429;50.958;3.592;2023-12-20T08:40:05;6.70;99.90
54168;DHT22;68429;50.958;3.592;2023-12-20T08:42:31;6.90;99.90
54168;DHT22;68429;50.958;3.592;2023-12-20T08:45:00;6.90;99.90
54168;DHT22;68429;50.958;3.592;2023-12-20T08:47:26;7.00;99.90
54168;DHT22;68429;50.958;3.592;2023-12-20T08:49:52;7.20;99.90
54168;DHT22;68429;50.958;3.592;2023-12-20T08:52:22;7.40;99.90
54168;DHT22;68429;50.958;3.592;2023-12-20T08:54:49;7.50;99.90
54168;DHT22;68429;50.958;3.592;2023-12-20T08:57:19;7.70;99.90
54168;DHT22;68429;50.958;3.592;2023-12-20T08:59:46;8.10;99.90
54168;DHT22;68429;50.958;3.592;2023-12-20T09:02:13;8.40;99.90
54168;DHT22;68429;50.958;3.592;2023-12-20T09:04:38;8.60;99.90
54168;DHT22;68429;50.958;3.592;2023-12-20T09:07:04;8.10;99.90
54168;DHT22;68429;50.958;3.592;2023-12-20T09:09:30;7.70;99.90
54168;DHT22;68429;50.958;3.592;2023-12-20T09:11:57;7.50;99.90
54168;DHT22;68429;50.958;3.592;2023-12-20T09:14:23;7.40;99.90
54168;DHT22;68429;50.958;3.592;2023-12-20T09:16:49;7.20;99.90
54168;DHT22;68429;50.958;3.592;2023-12-20T09:19:17;7.00;99.90
54168;DHT22;68429;50.958;3.592;2023-12-20T09:21:42;7.00;99.90
54168;DHT22;68429;50.958;3.592;2023-12-20T09:24:08;6.80;99.90
54168;DHT22;68429;50.958;3.592;2023-12-20T09:26:34;6.80;99.90
54168;DHT22;68429;50.958;3.592;2023-12-20T09:29:00;6.90;99.90
54168;DHT22;68429;50.958;3.592;2023-12-20T09:31:25;7.30;99.90
54168;DHT22;68429;50.958;3.592;2023-12-20T09:33:51;7.70;99.90
54168;DHT22;68429;50.958;3.592;2023-12-20T09:36:16;8.50;99.90
54168;DHT22;68429;50.958;3.592;2023-12-20T09:38:42;8.50;99.90
54168;DHT22;68429;50.958;3.592;2023-12-20T09:41:08;8.00;99.90
54168;DHT22;68429;50.958;3.592;2023-12-20T09:43:37;7.80;99.90
54168;DHT22;68429;50.958;3.592;2023-12-20T09:46:06;7.70;99.90
54168;DHT22;68429;50.958;3.592;2023-12-20T09:48:33;7.90;99.90
54168;DHT22;68429;50.958;3.592;2023-12-20T09:50:59;7.80;99.90
54168;DHT22;68429;50.958;3.592;2023-12-20T09:53:25;7.60;99.90
54168;DHT22;68429;50.958;3.592;2023-12-20T09:56:00;7.60;99.90
54168;DHT22;68429;50.958;3.592;2023-12-20T09:58:26;7.50;99.90
54168;DHT22;68429;50.958;3.592;2023-12-20T10:00:53;7.50;99.90
54168;DHT22;68429;50.958;3.592;2023-12-20T10:03:24;7.50;99.90
54168;DHT22;68429;50.958;3.592;2023-12-20T10:05:54;7.60;99.90
54168;DHT22;68429;50.958;3.592;2023-12-20T10:08:21;7.50;99.90
54168;DHT22;68429;50.958;3.592;2023-12-20T10:10:47;7.50;99.90
54168;DHT22;68429;50.958;3.592;2023-12-20T10:13:13;7.50;99.90
54168;DHT22;68429;50.958;3.592;2023-12-20T10:15:40;7.60;99.90
54168;DHT22;68429;50.958;3.592;2023-12-20T10:18:06;7.60;99.90
54168;DHT22;68429;50.958;3.592;2023-12-20T10:20:32;7.60;99.90
54168;DHT22;68429;50.958;3.592;2023-12-20T10:22:59;7.70;99.90
54168;DHT22;68429;50.958;3.592;2023-12-20T10:25:25;7.80;99.90
54168;DHT22;68429;50.958;3.592;2023-12-20T10:28:17;7.80;99.90
54168;DHT22;68429;50.958;3.592;2023-12-20T10:30:44;7.80;99.90
54168;DHT22;68429;50.958;3.592;2023-12-20T10:33:10;7.90;99.90
54168;DHT22;68429;50.958;3.592;2023-12-20T10:35:37;7.90;99.90
54168;DHT22;68429;50.958;3.592;2023-12-20T10:38:05;8.00;99.90
54168;DHT22;68429;50.958;3.592;2023-12-20T10:40:34;8.00;99.90
54168;DHT22;68429;50.958;3.592;2023-12-20T10:43:02;8.00;99.90
54168;DHT22;68429;50.958;3.592;2023-12-20T10:45:30;8.00;99.90
54168;DHT22;68429;50.958;3.592;2023-12-20T10:47:56;8.00;99.90
54168;DHT22;68429;50.958;3.592;2023-12-20T10:50:25;8.00;99.90
54168;DHT22;68429;50.958;3.592;2023-12-20T10:52:52;8.10;99.90
54168;DHT22;68429;50.958;3.592;2023-12-20T10:55:22;8.10;99.90
54168;DHT22;68429;50.958;3.592;2023-12-20T10:57:54;8.10;99.90
54168;DHT22;68429;50.958;3.592;2023-12-20T11:00:23;8.20;99.90
54168;DHT22;68429;50.958;3.592;2023-12-20T11:02:50;8.20;99.90
54168;DHT22;68429;50.958;3.592;2023-12-20T11:05:26;8.20;99.90
54168;DHT22;68429;50.958;3.592;2023-12-20T11:07:57;8.30;99.90
54168;DHT22;68429;50.958;3.592;2023-12-20T11:10:58;8.30;99.90
54168;DHT22;68429;50.958;3.592;2023-12-20T11:13:40;8.30;99.90
54168;DHT22;68429;50.958;3.592;2023-12-20T11:16:09;8.40;99.90
54168;DHT22;68429;50.958;3.592;2023-12-20T11:18:35;8.40;99.90
54168;DHT22;68429;50.958;3.592;2023-12-20T11:21:02;8.50;99.90
54168;DHT22;68429;50.958;3.592;2023-12-20T11:23:30;8.50;99.90
54168;DHT22;68429;50.958;3.592;2023-12-20T11:25:57;8.50;99.90
54168;DHT22;68429;50.958;3.592;2023-12-20T11:28:25;8.60;99.90
54168;DHT22;68429;50.958;3.592;2023-12-20T11:30:52;8.70;99.90
54168;DHT22;68429;50.958;3.592;2023-12-20T11:33:26;8.70;99.90
54168;DHT22;68429;50.958;3.592;2023-12-20T11:35:54;8.80;99.90
54168;DHT22;68429;50.958;3.592;2023-12-20T11:38:21;8.70;99.90
54168;DHT22;68429;50.958;3.592;2023-12-20T11:40:49;8.70;99.90
54168;DHT22;68429;50.958;3.592;2023-12-20T11:43:42;8.70;99.90
54168;DHT22;68429;50.958;3.592;2023-12-20T11:46:09;8.80;99.90
54168;DHT22;68429;50.958;3.592;2023-12-20T11:48:36;8.80;99.90
54168;DHT22;68429;50.958;3.592;2023-12-20T11:51:02;8.90;99.90
54168;DHT22;68429;50.958;3.592;2023-12-20T11:53:29;8.90;99.90
54168;DHT22;68429;50.958;3.592;2023-12-20T11:55:56;8.90;99.90
54168;DHT22;68429;50.958;3.592;2023-12-20T11:58:22;8.90;99.90
54168;DHT22;68429;50.958;3.592;2023-12-20T12:00:49;8.90;99.90
54168;DHT22;68429;50.958;3.592;2023-12-20T12:03:15;9.00;99.90
54168;DHT22;68429;50.958;3.592;2023-12-20T12:05:41;9.10;99.90
54168;DHT22;68429;50.958;3.592;2023-12-20T12:08:07;9.00;99.90
54168;DHT22;68429;50.958;3.592;2023-12-20T12:10:33;9.10;99.90
54168;DHT22;68429;50.958;3.592;2023-12-20T12:12:59;9.10;99.90
54168;DHT22;68429;50.958;3.592;2023-12-20T12:15:26;9.10;99.90
54168;DHT22;68429;50.958;3.592;2023-12-20T12:17:55;9.10;99.90
54168;DHT22;68429;50.958;3.592;2023-12-20T12:20:22;9.30;99.90
54168;DHT22;68429;50.958;3.592;2023-12-20T12:23:01;9.30;99.90
54168;DHT22;68429;50.958;3.592;2023-12-20T12:25:28;9.50;99.90
54168;DHT22;68429;50.958;3.592;2023-12-20T12:27:53;9.70;99.90
54168;DHT22;68429;50.958;3.592;2023-12-20T12:30:19;9.60;99.90
54168;DHT22;68429;50.958;3.592;2023-12-20T12:32:45;9.50;99.90
54168;DHT22;68429;50.958;3.592;2023-12-20T12:35:11;9.30;99.90
54168;DHT22;68429;50.958;3.592;2023-12-20T12:37:40;9.30;99.90
54168;DHT22;68429;50.958;3.592;2023-12-20T12:40:10;9.40;99.90
54168;DHT22;68429;50.958;3.592;2023-12-20T12:42:40;9.40;99.90
54168;DHT22;68429;50.958;3.592;2023-12-20T12:45:07;9.50;99.90
54168;DHT22;68429;50.958;3.592;2023-12-20T12:47:33;9.50;99.90
54168;DHT22;68429;50.958;3.592;2023-12-20T12:49:59;9.50;99.90
54168;DHT22;68429;50.958;3.592;2023-12-20T12:52:25;9.50;99.90
54168;DHT22;68429;50.958;3.592;2023-12-20T12:54:52;9.80;99.90
54168;DHT22;68429;50.958;3.592;2023-12-20T12:57:18;10.10;99.90
54168;DHT22;68429;50.958;3.592;2023-12-20T12:59:45;10.30;99.90
54168;DHT22;68429;50.958;3.592;2023-12-20T13:02:15;10.30;99.90
54168;DHT22;68429;50.958;3.592;2023-12-20T13:04:41;10.40;99.90
54168;DHT22;68429;50.958;3.592;2023-12-20T13:07:10;10.30;99.90
54168;DHT22;68429;50.958;3.592;2023-12-20T13:09:36;10.20;99.90
54168;DHT22;68429;50.958;3.592;2023-12-20T13:12:02;10.10;99.90
54168;DHT22;68429;50.958;3.592;2023-12-20T13:14:31;10.10;99.90
54168;DHT22;68429;50.958;3.592;2023-12-20T13:16:58;10.00;99.90
54168;DHT22;68429;50.958;3.592;2023-12-20T13:19:24;10.10;99.90
54168;DHT22;68429;50.958;3.592;2023-12-20T13:21:49;9.90;99.90
54168;DHT22;68429;50.958;3.592;2023-12-20T13:24:15;9.90;99.90
54168;DHT22;68429;50.958;3.592;2023-12-20T13:26:40;9.80;99.90
54168;DHT22;68429;50.958;3.592;2023-12-20T13:29:06;9.80;99.90
54168;DHT22;68429;50.958;3.592;2023-12-20T13:31:32;9.90;99.90
54168;DHT22;68429;50.958;3.592;2023-12-20T13:33:58;9.90;99.90
54168;DHT22;68429;50.958;3.592;2023-12-20T13:36:23;10.10;99.90
54168;DHT22;68429;50.958;3.592;2023-12-20T13:38:49;10.00;99.90
54168;DHT22;68429;50.958;3.592;2023-12-20T13:41:15;10.10;99.90
54168;DHT22;68429;50.958;3.592;2023-12-20T13:43:41;10.10;99.90
54168;DHT22;68429;50.958;3.592;2023-12-20T13:46:08;10.20;99.90
54168;DHT22;68429;50.958;3.592;2023-12-20T13:48:33;10.10;99.90
54168;DHT22;68429;50.958;3.592;2023-12-20T13:50:59;10.20;99.90
54168;DHT22;68429;50.958;3.592;2023-12-20T13:53:25;10.10;99.90
54168;DHT22;68429;50.958;3.592;2023-12-20T13:55:51;10.10;99.90
54168;DHT22;68429;50.958;3.592;2023-12-20T13:58:17;10.00;99.90
54168;DHT22;68429;50.958;3.592;2023-12-20T14:00:42;10.10;99.90
54168;DHT22;68429;50.958;3.592;2023-12-20T14:03:08;10.00;99.90
54168;DHT22;68429;50.958;3.592;2023-12-20T14:05:35;10.00;99.90
54168;DHT22;68429;50.958;3.592;2023-12-20T14:08:01;9.90;99.90
54168;DHT22;68429;50.958;3.592;2023-12-20T14:10:27;9.90;99.90
54168;DHT22;68429;50.958;3.592;2023-12-20T14:12:53;9.80;99.90
54168;DHT22;68429;50.958;3.592;2023-12-20T14:15:19;9.80;99.90
54168;DHT22;68429;50.958;3.592;2023-12-20T14:17:45;9.80;99.90
54168;DHT22;68429;50.958;3.592;2023-12-20T14:20:11;9.80;99.90
54168;DHT22;68429;50.958;3.592;2023-12-20T14:22:41;9.80;99.90
54168;DHT22;68429;50.958;3.592;2023-12-20T14:25:14;9.80;99.90
54168;DHT22;68429;50.958;3.592;2023-12-20T14:27:41;9.80;99.90
54168;DHT22;68429;50.958;3.592;2023-12-20T14:30:09;9.80;99.90
54168;DHT22;68429;50.958;3.592;2023-12-20T14:32:35;9.80;99.90
54168;DHT22;68429;50.958;3.592;2023-12-20T14:35:07;9.70;99.90
54168;DHT22;68429;50.958;3.592;2023-12-20T14:37:37;9.80;99.90
54168;DHT22;68429;50.958;3.592;2023-12-20T14:40:08;9.70;99.90
54168;DHT22;68429;50.958;3.592;2023-12-20T14:42:41;9.60;99.90
54168;DHT22;68429;50.958;3.592;2023-12-20T14:45:07;9.60;99.90
54168;DHT22;68429;50.958;3.592;2023-12-20T14:47:32;9.60;99.90
54168;DHT22;68429;50.958;3.592;2023-12-20T14:49:58;9.60;99.90
54168;DHT22;68429;50.958;3.592;2023-12-20T14:52:24;9.60;99.90
54168;DHT22;68429;50.958;3.592;2023-12-20T14:54:49;9.60;99.90
54168;DHT22;68429;50.958;3.592;2023-12-20T14:57:15;9.60;99.90
54168;DHT22;68429;50.958;3.592;2023-12-20T14:59:41;9.50;99.90
54168;DHT22;68429;50.958;3.592;2023-12-20T15:02:06;9.50;99.90
54168;DHT22;68429;50.958;3.592;2023-12-20T15:04:32;9.50;99.90
54168;DHT22;68429;50.958;3.592;2023-12-20T15:06:58;9.50;99.90
54168;DHT22;68429;50.958;3.592;2023-12-20T15:09:23;9.50;99.90
54168;DHT22;68429;50.958;3.592;2023-12-20T15:11:50;9.60;99.90
54168;DHT22;68429;50.958;3.592;2023-12-20T15:14:16;9.60;99.90
54168;DHT22;68429;50.958;3.592;2023-12-20T15:16:47;9.60;99.90
54168;DHT22;68429;50.958;3.592;2023-12-20T15:19:13;9.60;99.90
54168;DHT22;68429;50.958;3.592;2023-12-20T15:21:39;9.60;99.90
54168;DHT22;68429;50.958;3.592;2023-12-20T15:24:09;9.50;99.90
54168;DHT22;68429;50.958;3.592;2023-12-20T15:26:41;9.50;99.90
54168;DHT22;68429;50.958;3.592;2023-12-20T15:29:07;9.50;99.90
54168;DHT22;68429;50.958;3.592;2023-12-20T15:31:34;9.60;99.90
54168;DHT22;68429;50.958;3.592;2023-12-20T15:34:01;9.50;99.90
54168;DHT22;68429;50.958;3.592;2023-12-20T15:36:26;9.50;99.90
54168;DHT22;68429;50.958;3.592;2023-12-20T15:38:52;9.50;99.90
54168;DHT22;68429;50.958;3.592;2023-12-20T15:41:19;9.50;99.90